Appleton City, Missouri
Current Conditions -  °F | °C
As of 2:35 AM on Monday 24 Nov 2014 (Local Time) from KGLY Reporting Station
Broken Clouds Broken Clouds  
Wind Chill: 35°   Ceiling: 3400
Heat Index: 41°   Visibility: 10mi
Dew Point: 34°   Wind: 10mph
Humidity: 76%   Direction: 300°WNW
Pressure: 29.54"   Gusts: 16mph
Location:  38.19°N, 94.03°W
Report Text: KGLY 240835Z AUTO 30009G14KT 10SM BKN034 05/01 A2954 RMK AO2
Loading
Personal Weather Stations






























Interactive Weather Map New forecast layout! Learn more

10-Day Weather Forecast

Advertisements
Track Severe Weather on mobile